Time;durP1;ratioP1;P1;durP2;ratioP2;P2;SDS_P1;SDS_P2;PMS_P1;PMS_P2;Temp;Humidity;BMP_temperature;BMP_pressure;BME280_temperature;BME280_humidity;BME280_pressure;Samples;Min_cycle;Max_cycle;Signal;HPM_P1;HPM_P2
2021/04/24 00:00:15;;;;;;;0.30;0.20;;;;;;;4.80;82.21;101118.91;5035102;28;20464;-77
2021/04/24 00:02:42;;;;;;;0.30;0.20;;;;;;;4.89;82.09;101101.44;5035323;28;20451;-77
2021/04/24 00:05:21;;;;;;;0.30;0.20;;;;;;;4.82;82.21;101115.44;5035477;28;20444;-77
2021/04/24 00:07:48;;;;;;;0.40;0.30;;;;;;;4.76;82.55;101102.19;5035000;28;20454;-77
2021/04/24 00:10:15;;;;;;;0.30;0.20;;;;;;;4.67;82.46;101110.94;5034979;28;20471;-77
2021/04/24 00:12:43;;;;;;;0.30;0.20;;;;;;;4.51;82.83;101118.66;5035057;28;20463;-77
2021/04/24 00:15:11;;;;;;;1.40;1.40;;;;;;;4.37;82.87;101123.78;5035316;28;20455;-77
2021/04/24 00:17:39;;;;;;;0.87;0.87;;;;;;;4.27;84.40;101120.19;5034920;28;20545;-77
2021/04/24 00:20:07;;;;;;;0.30;0.20;;;;;;;4.31;84.51;101118.47;5035599;28;20479;-77
2021/04/24 00:22:33;;;;;;;0.30;0.20;;;;;;;4.12;84.45;101127.94;5034540;28;20470;-80
2021/04/24 00:24:59;;;;;;;0.30;0.20;;;;;;;4.17;84.11;101126.22;5035221;28;20964;-77
2021/04/24 00:27:26;;;;;;;0.63;0.60;;;;;;;4.25;83.78;101116.66;5035399;28;20455;-77
2021/04/24 00:29:52;;;;;;;0.30;0.20;;;;;;;3.96;85.44;101124.22;5035102;28;20472;-77
2021/04/24 00:32:18;;;;;;;0.30;0.20;;;;;;;4.24;84.15;101117.50;5039862;28;20465;-78
2021/04/24 00:34:45;;;;;;;0.30;0.20;;;;;;;4.24;84.49;101127.16;5043133;28;20459;-77
2021/04/24 00:37:12;;;;;;;0.30;0.20;;;;;;;4.39;84.14;101122.97;5035335;28;20499;-77
2021/04/24 00:39:38;;;;;;;0.30;0.20;;;;;;;4.03;84.78;101122.56;5035176;28;20472;-77
2021/04/24 00:42:05;;;;;;;0.30;0.20;;;;;;;4.23;83.88;101120.13;5035528;28;20452;-77
2021/04/24 00:44:31;;;;;;;0.30;0.20;;;;;;;4.17;84.41;101115.69;5034846;28;20456;-78
2021/04/24 00:46:58;;;;;;;0.30;0.20;;;;;;;4.05;84.67;101108.53;5035174;28;20450;-77
2021/04/24 00:49:24;;;;;;;0.30;0.20;;;;;;;4.09;84.23;101104.19;5033966;28;20521;-77
2021/04/24 00:51:50;;;;;;;0.30;0.20;;;;;;;3.80;85.34;101102.13;5033700;28;20467;-76
2021/04/24 00:54:17;;;;;;;0.40;0.40;;;;;;;3.68;85.90;101083.56;5035320;28;20458;-77
2021/04/24 00:56:43;;;;;;;0.30;0.20;;;;;;;3.52;86.61;101095.63;5034856;28;20478;-77
2021/04/24 00:59:09;;;;;;;0.30;0.20;;;;;;;3.56;86.54;101101.81;5035302;28;20529;-77
2021/04/24 01:01:35;;;;;;;0.30;0.20;;;;;;;3.58;86.22;101105.38;5021684;28;20940;-78
2021/04/24 01:04:02;;;;;;;0.30;0.10;;;;;;;3.43;87.12;101107.78;5035901;28;20459;-77
2021/04/24 01:06:28;;;;;;;1.43;1.43;;;;;;;3.59;86.65;101098.34;5022410;28;20452;-77
2021/04/24 01:08:54;;;;;;;0.30;0.20;;;;;;;3.57;86.54;101100.97;5035596;28;20960;-77
2021/04/24 01:11:20;;;;;;;0.30;0.20;;;;;;;3.62;86.18;101098.38;5035435;28;20512;-77
2021/04/24 01:13:46;;;;;;;0.30;0.20;;;;;;;3.44;87.04;101106.94;5035687;28;20455;-77
2021/04/24 01:16:13;;;;;;;0.30;0.20;;;;;;;3.44;86.67;101091.16;5022945;28;20513;-77
2021/04/24 01:18:39;;;;;;;0.30;0.20;;;;;;;3.67;85.86;101097.56;5035232;28;20495;-77
2021/04/24 01:21:06;;;;;;;0.30;0.20;;;;;;;3.54;86.08;101096.53;5020334;28;20480;-77
2021/04/24 01:23:34;;;;;;;0.30;0.20;;;;;;;3.40;86.88;101099.84;5034400;28;20452;-78
2021/04/24 01:26:01;;;;;;;0.30;0.20;;;;;;;3.76;85.74;101097.69;5021677;28;20475;-78
2021/04/24 01:28:30;;;;;;;0.30;0.20;;;;;;;3.84;85.97;101101.31;5035523;28;20478;-77
2021/04/24 01:30:56;;;;;;;0.30;0.20;;;;;;;3.55;86.63;101095.66;5036426;28;20529;-77
2021/04/24 01:33:23;;;;;;;0.30;0.10;;;;;;;3.65;87.12;101106.31;5037353;28;20447;-77
2021/04/24 01:35:49;;;;;;;0.30;0.20;;;;;;;3.62;86.43;101098.38;5038818;28;20443;-77
2021/04/24 01:38:16;;;;;;;0.30;0.20;;;;;;;3.41;87.34;101094.59;5038572;28;20898;-77
2021/04/24 01:40:43;;;;;;;0.30;0.17;;;;;;;3.31;87.62;101102.38;5039120;28;20474;-77
2021/04/24 01:43:09;;;;;;;0.30;0.20;;;;;;;3.30;87.78;101101.47;5039028;28;20861;-80
2021/04/24 01:45:39;;;;;;;0.30;0.10;;;;;;;3.44;87.10;101096.41;5039494;28;20951;-77
2021/04/24 01:48:06;;;;;;;0.30;0.20;;;;;;;3.32;87.64;101099.75;5053950;28;20455;-80
2021/04/24 01:50:36;;;;;;;0.30;0.20;;;;;;;3.35;86.72;101098.91;5053417;28;20476;-80
2021/04/24 01:53:05;;;;;;;0.30;0.20;;;;;;;3.00;87.45;101101.88;5053168;28;20471;-78
2021/04/24 01:55:34;;;;;;;0.30;0.20;;;;;;;3.05;88.08;101101.97;5052782;28;20454;-80
2021/04/24 01:58:03;;;;;;;0.30;0.20;;;;;;;3.09;87.87;101102.03;5053208;28;20832;-78
2021/04/24 02:00:36;;;;;;;0.30;0.20;;;;;;;2.98;87.95;101096.63;5053307;28;20498;-79
2021/04/24 02:03:06;;;;;;;0.30;0.20;;;;;;;2.90;88.24;101100.88;5052828;28;20448;-80
2021/04/24 02:05:33;;;;;;;0.30;0.20;;;;;;;2.94;88.41;101107.94;5053538;28;20472;-80
2021/04/24 02:08:04;;;;;;;0.30;0.20;;;;;;;2.91;87.92;101092.16;5052320;28;20478;-79
2021/04/24 02:10:31;;;;;;;0.30;0.20;;;;;;;2.82;88.51;101096.38;5051714;28;20508;-80
2021/04/24 02:13:01;;;;;;;0.30;0.20;;;;;;;2.96;87.67;101116.72;5053449;28;20451;-78
2021/04/24 02:15:27;;;;;;;0.30;0.20;;;;;;;2.82;88.91;101104.25;5053286;28;20474;-80
2021/04/24 02:17:53;;;;;;;1.63;1.10;;;;;;;3.06;87.35;101103.75;5052275;28;20498;-80
2021/04/24 02:20:20;;;;;;;0.30;0.20;;;;;;;2.89;88.20;101106.13;5052744;28;20470;-80
2021/04/24 02:22:46;;;;;;;0.30;0.20;;;;;;;2.87;88.15;101102.56;5051840;28;20527;-80
2021/04/24 02:25:16;;;;;;;0.30;0.10;;;;;;;2.76;87.55;101104.16;5052885;28;20470;-80
2021/04/24 02:27:42;;;;;;;0.30;0.20;;;;;;;2.77;88.39;101101.56;5052458;28;20503;-78
2021/04/24 02:30:14;;;;;;;0.30;0.17;;;;;;;2.98;87.88;101106.25;5053345;28;20980;-80
2021/04/24 02:32:41;;;;;;;0.30;0.20;;;;;;;3.10;86.93;101108.19;5049680;28;20449;-78
2021/04/24 02:35:09;;;;;;;0.30;0.20;;;;;;;2.70;87.92;101106.66;5051370;28;20482;-80
2021/04/24 02:37:36;;;;;;;0.30;0.20;;;;;;;2.72;89.47;101100.56;5051980;28;20503;-80
2021/04/24 02:40:06;;;;;;;0.30;0.20;;;;;;;2.56;88.70;101109.94;5048535;28;20475;-78
2021/04/24 02:42:32;;;;;;;0.30;0.20;;;;;;;2.63;89.52;101106.56;5051853;28;20440;-78
2021/04/24 02:45:05;;;;;;;0.30;0.10;;;;;;;2.68;89.73;101102.28;5049346;28;20953;-80
2021/04/24 02:47:33;;;;;;;0.30;0.20;;;;;;;2.80;89.63;101093.72;5042767;28;20444;-78
2021/04/24 02:50:05;;;;;;;0.30;0.20;;;;;;;2.76;89.39;101093.66;5049464;28;20490;-78
2021/04/24 02:52:32;;;;;;;0.30;0.20;;;;;;;2.62;89.62;101089.06;5042888;28;20451;-78
2021/04/24 02:54:58;;;;;;;0.40;0.40;;;;;;;2.65;89.46;101093.47;5051859;28;20462;-80
2021/04/24 02:57:24;;;;;;;0.30;0.10;;;;;;;2.52;89.31;101096.75;5049562;28;20496;-80
2021/04/24 02:59:50;;;;;;;0.30;0.20;;;;;;;2.44;89.98;101096.59;5037344;28;20868;-83
2021/04/24 03:02:17;;;;;;;0.30;0.17;;;;;;;2.25;90.57;101098.03;5050802;28;20497;-80
2021/04/24 03:04:44;;;;;;;0.30;0.20;;;;;;;2.16;92.62;101097.84;5049613;28;20530;-81
2021/04/24 03:07:11;;;;;;;0.40;0.40;;;;;;;2.29;91.94;101091.97;5050368;28;20447;-78
2021/04/24 03:09:38;;;;;;;0.30;0.20;;;;;;;2.30;91.63;101099.00;5050331;28;20467;-80
2021/04/24 03:12:06;;;;;;;0.30;0.10;;;;;;;2.33;91.28;101090.28;5051315;28;20440;-78
2021/04/24 03:14:33;;;;;;;0.30;0.20;;;;;;;2.46;90.92;101088.75;5044724;28;20495;-80
2021/04/24 03:17:00;;;;;;;0.30;0.20;;;;;;;2.45;89.76;101093.13;5044395;28;20462;-80
2021/04/24 03:19:26;;;;;;;0.30;0.20;;;;;;;2.37;90.69;101093.00;5052067;28;20471;-80
2021/04/24 03:21:53;;;;;;;0.30;0.10;;;;;;;2.19;91.36;101092.66;5050756;28;20443;-80
2021/04/24 03:24:19;;;;;;;0.30;0.20;;;;;;;2.15;90.42;101085.59;5036136;28;20452;-79
2021/04/24 03:26:45;;;;;;;0.30;0.20;;;;;;;2.33;90.35;101092.91;5050466;28;20444;-78
2021/04/24 03:29:11;;;;;;;0.30;0.20;;;;;;;2.23;90.31;101083.13;5052956;28;20486;-79
2021/04/24 03:31:37;;;;;;;0.30;0.10;;;;;;;2.08;90.52;101102.97;5052390;28;20444;-80
2021/04/24 03:34:04;;;;;;;0.30;0.10;;;;;;;2.02;91.15;101094.97;5051131;28;20555;-78
2021/04/24 03:36:30;;;;;;;0.30;0.20;;;;;;;1.89;91.52;101098.22;5053259;28;20953;-79
2021/04/24 03:38:57;;;;;;;0.30;0.10;;;;;;;1.81;92.89;101084.09;5050637;28;20495;-79
2021/04/24 03:41:23;;;;;;;0.30;0.10;;;;;;;1.95;92.26;101082.63;5050022;28;20623;-80
2021/04/24 03:43:49;;;;;;;0.30;0.20;;;;;;;2.07;92.65;101085.47;5049808;28;20474;-78
2021/04/24 03:46:16;;;;;;;0.30;0.20;;;;;;;2.10;92.17;101086.38;5048495;28;20452;-79
2021/04/24 03:48:42;;;;;;;0.30;0.20;;;;;;;2.14;91.28;101098.69;5049764;28;20451;-80
2021/04/24 03:51:09;;;;;;;0.30;0.20;;;;;;;2.17;91.79;101098.72;5049610;28;20472;-78
2021/04/24 03:53:35;;;;;;;0.30;0.10;;;;;;;1.90;92.38;101091.22;5047547;28;20452;-80
2021/04/24 03:56:01;;;;;;;0.30;0.20;;;;;;;1.93;91.46;101075.59;5048206;28;20447;-79
2021/04/24 03:58:27;;;;;;;0.30;0.10;;;;;;;1.91;91.20;101106.09;5047693;28;21080;-79
2021/04/24 04:00:54;;;;;;;0.40;0.40;;;;;;;1.92;92.09;101093.06;5048251;28;20467;-78
2021/04/24 04:03:20;;;;;;;0.30;0.20;;;;;;;1.93;92.96;101092.19;5046470;28;21019;-78
2021/04/24 04:05:48;;;;;;;0.30;0.20;;;;;;;1.82;92.80;101095.47;5046135;28;20509;-78
2021/04/24 04:08:15;;;;;;;0.30;0.20;;;;;;;2.05;91.50;101110.75;5047945;28;20451;-79
2021/04/24 04:10:43;;;;;;;0.93;0.93;;;;;;;2.09;91.80;101122.22;5047475;28;20468;-80
2021/04/24 04:13:11;;;;;;;0.30;0.10;;;;;;;1.92;92.73;101107.88;5046630;28;20475;-80
2021/04/24 04:15:38;;;;;;;0.30;0.20;;;;;;;2.02;92.93;101112.44;5046086;28;20933;-80
2021/04/24 04:18:13;;;;;;;0.30;0.20;;;;;;;1.83;91.57;101099.84;5045497;28;20518;-78
2021/04/24 04:20:45;;;;;;;0.30;0.10;;;;;;;1.76;92.83;101106.69;5044016;28;20467;-80
2021/04/24 04:23:12;;;;;;;0.30;0.20;;;;;;;1.89;92.37;101106.06;5040844;28;20450;-78
2021/04/24 04:25:39;;;;;;;0.30;0.10;;;;;;;2.02;92.94;101123.81;5040772;28;20459;-78
2021/04/24 04:28:06;;;;;;;0.30;0.10;;;;;;;1.95;93.54;101121.06;5042542;28;20443;-78
2021/04/24 04:30:34;;;;;;;0.30;0.20;;;;;;;1.90;94.23;101115.69;5046867;28;20886;-81
2021/04/24 04:33:01;;;;;;;0.30;0.20;;;;;;;2.05;93.32;101128.22;5048103;28;20444;-78
2021/04/24 04:35:27;;;;;;;0.30;0.20;;;;;;;2.04;93.66;101129.09;5046902;28;20455;-79
2021/04/24 04:37:54;;;;;;;0.30;0.30;;;;;;;2.07;93.38;101122.19;5048481;28;20504;-80
2021/04/24 04:40:21;;;;;;;0.30;0.20;;;;;;;2.14;92.35;101125.78;5048437;28;20471;-78
2021/04/24 04:42:48;;;;;;;0.40;0.40;;;;;;;2.24;91.75;101126.84;5049119;28;20511;-80
2021/04/24 04:45:16;;;;;;;0.30;0.20;;;;;;;2.32;92.53;101120.00;5048056;28;20466;-80
2021/04/24 04:47:43;;;;;;;0.30;0.10;;;;;;;2.23;91.42;101130.34;5048311;28;20447;-80
2021/04/24 04:50:13;;;;;;;0.30;0.20;;;;;;;2.00;92.98;101125.53;5049994;28;20498;-78
2021/04/24 04:52:40;;;;;;;0.30;0.20;;;;;;;2.18;91.93;101124.09;5047406;28;20543;-80
2021/04/24 04:55:07;;;;;;;0.30;0.10;;;;;;;2.04;92.98;101123.84;5048460;28;20471;-80
2021/04/24 04:57:33;;;;;;;0.30;0.20;;;;;;;2.13;92.85;101118.78;5047370;28;20488;-78
2021/04/24 05:00:00;;;;;;;0.30;0.10;;;;;;;2.12;92.76;101124.88;5047465;28;20475;-80
2021/04/24 05:02:26;;;;;;;0.20;0.10;;;;;;;2.24;92.94;101108.50;5047720;28;20440;-78
2021/04/24 05:04:53;;;;;;;0.30;0.30;;;;;;;2.44;92.23;101114.97;5048016;28;20455;-80
2021/04/24 05:07:19;;;;;;;2.27;2.03;;;;;;;2.77;91.29;101111.16;5047461;28;20443;-79
2021/04/24 05:09:45;;;;;;;0.30;0.10;;;;;;;3.70;87.54;101123.91;5050248;28;20498;-80
2021/04/24 05:12:11;;;;;;;0.30;0.10;;;;;;;4.22;84.54;101121.00;5049590;28;20462;-78
2021/04/24 05:14:38;;;;;;;0.30;0.20;;;;;;;4.21;83.81;101113.97;5050354;28;20455;-78
2021/04/24 05:17:04;;;;;;;0.30;0.13;;;;;;;4.65;81.80;101115.28;5049413;28;20464;-80
2021/04/24 05:19:31;;;;;;;0.30;0.20;;;;;;;5.05;80.21;101118.22;5049225;28;20475;-81
2021/04/24 05:21:57;;;;;;;0.30;0.17;;;;;;;5.01;79.87;101114.69;5049020;28;20447;-81
2021/04/24 05:24:24;;;;;;;0.30;0.20;;;;;;;5.00;79.67;101126.09;5050144;28;20513;-78
2021/04/24 05:26:50;;;;;;;0.30;0.20;;;;;;;5.02;80.40;101124.38;5048603;28;20495;-80
2021/04/24 05:29:16;;;;;;;0.30;0.20;;;;;;;5.45;79.00;101140.47;5049160;28;20467;-78
2021/04/24 05:31:43;;;;;;;0.30;0.10;;;;;;;5.50;78.80;101124.69;5045040;28;20451;-79
2021/04/24 05:34:09;;;;;;;0.30;0.20;;;;;;;5.72;78.09;101129.19;5060855;28;20475;-78
2021/04/24 05:36:36;;;;;;;0.30;0.20;;;;;;;5.80;77.46;101135.38;5050220;28;20455;-78
2021/04/24 05:39:03;;;;;;;0.30;0.20;;;;;;;6.09;77.85;101132.88;5048782;28;20495;-78
2021/04/24 05:41:30;;;;;;;0.40;0.33;;;;;;;6.19;76.33;101131.16;5045418;28;20470;-77
2021/04/24 05:43:57;;;;;;;0.30;0.20;;;;;;;6.37;76.93;101133.84;5046113;28;20447;-80
2021/04/24 05:46:25;;;;;;;1.47;1.23;;;;;;;6.53;75.54;101134.75;5045621;28;20452;-80
2021/04/24 05:48:51;;;;;;;0.30;0.20;;;;;;;6.78;74.85;101128.59;5044535;28;20452;-78
2021/04/24 05:51:19;;;;;;;0.30;0.20;;;;;;;6.77;74.38;101133.91;5045522;28;20462;-79
2021/04/24 05:53:48;;;;;;;0.30;0.20;;;;;;;6.97;74.20;101131.25;5044832;28;20456;-79
2021/04/24 05:56:16;;;;;;;0.30;0.20;;;;;;;6.94;74.78;101131.25;5043577;28;20463;-80
2021/04/24 05:58:42;;;;;;;1.13;1.13;;;;;;;6.89;75.98;101128.63;5042983;28;20491;-80
2021/04/24 06:01:09;;;;;;;0.30;0.20;;;;;;;7.19;73.85;101129.47;5043422;28;20475;-80
2021/04/24 06:03:35;;;;;;;1.73;0.70;;;;;;;7.25;73.50;101124.16;5041145;28;20451;-79
2021/04/24 06:06:03;;;;;;;1.80;1.70;;;;;;;7.50;73.00;101140.88;5040080;28;20455;-80
2021/04/24 06:08:29;;;;;;;0.30;0.20;;;;;;;7.52;72.58;101125.88;5042786;28;20463;-80
2021/04/24 06:10:55;;;;;;;0.30;0.20;;;;;;;7.31;73.44;101127.69;5037317;28;20486;-79
2021/04/24 06:13:22;;;;;;;0.30;0.20;;;;;;;7.32;73.35;101134.75;5043380;28;20459;-79
2021/04/24 06:15:49;;;;;;;0.30;0.20;;;;;;;7.29;74.35;101128.59;5047253;28;20436;-80
2021/04/24 06:18:16;;;;;;;0.30;0.20;;;;;;;7.34;74.35;101126.81;5045323;28;20525;-79
2021/04/24 06:20:43;;;;;;;0.80;0.80;;;;;;;7.39;74.97;101123.25;5045350;28;20484;-79
2021/04/24 06:23:13;;;;;;;0.30;0.20;;;;;;;7.67;73.76;101116.13;5045234;28;20464;-79
2021/04/24 06:25:41;;;;;;;0.30;0.20;;;;;;;7.43;74.90;101126.78;5048669;28;20455;-78
2021/04/24 06:28:09;;;;;;;0.30;0.20;;;;;;;7.56;74.74;101114.41;5041271;28;20439;-78
2021/04/24 06:30:36;;;;;;;0.30;0.20;;;;;;;7.53;75.99;101117.06;5039896;28;20482;-79
2021/04/24 06:33:03;;;;;;;0.30;0.20;;;;;;;7.67;74.78;101120.53;5050858;28;20451;-78
2021/04/24 06:35:29;;;;;;;0.30;0.20;;;;;;;7.75;74.60;101112.59;5039958;28;20455;-78
2021/04/24 06:37:58;;;;;;;0.30;0.20;;;;;;;7.71;75.63;101119.66;5038158;28;20483;-79
2021/04/24 06:40:26;;;;;;;0.30;0.20;;;;;;;7.81;75.59;101116.09;5038346;28;20483;-77
2021/04/24 06:42:52;;;;;;;0.50;0.47;;;;;;;7.76;77.10;101112.56;5040114;28;20531;-79
2021/04/24 06:45:20;;;;;;;0.30;0.20;;;;;;;8.37;74.76;101103.50;5042891;28;20473;-78
2021/04/24 06:47:47;;;;;;;0.30;0.20;;;;;;;8.61;74.66;101095.34;5038757;28;20448;-79
2021/04/24 06:50:19;;;;;;;0.70;0.70;;;;;;;8.58;75.71;101098.03;5036085;28;20476;-78
2021/04/24 06:52:45;;;;;;;0.30;0.20;;;;;;;8.77;76.15;101082.84;5037251;28;20501;-79
2021/04/24 06:55:16;;;;;;;0.30;0.20;;;;;;;9.11;74.33;101102.88;5037056;28;20455;-79
2021/04/24 06:57:44;;;;;;;0.30;0.20;;;;;;;9.30;73.40;101092.06;5036245;28;20480;-79
2021/04/24 07:00:11;;;;;;;0.30;0.20;;;;;;;9.48;73.74;101103.38;5034706;28;20593;-78
2021/04/24 07:02:38;;;;;;;0.30;0.20;;;;;;;9.36;73.67;101094.69;5036219;28;20960;-78
2021/04/24 07:05:08;;;;;;;0.30;0.30;;;;;;;9.58;73.67;101104.13;5036911;28;20494;-78
2021/04/24 07:07:34;;;;;;;0.30;0.20;;;;;;;9.43;74.16;101097.22;5035629;28;20624;-79
2021/04/24 07:10:01;;;;;;;0.30;0.20;;;;;;;9.79;73.20;101101.25;5036650;28;20800;-79
2021/04/24 07:12:27;;;;;;;0.50;0.50;;;;;;;9.52;74.77;101100.69;5036059;28;20880;-80
2021/04/24 07:14:53;;;;;;;0.30;0.20;;;;;;;9.78;73.56;101101.25;5036417;28;20506;-79
2021/04/24 07:17:19;;;;;;;4.33;1.13;;;;;;;10.15;72.40;101092.81;5036096;28;20497;-79
2021/04/24 07:19:46;;;;;;;0.30;0.20;;;;;;;10.07;72.54;101096.44;5035325;28;20487;-79
2021/04/24 07:22:12;;;;;;;0.30;0.20;;;;;;;9.96;72.88;101086.88;5035475;28;20875;-79
2021/04/24 07:24:44;;;;;;;2.30;2.30;;;;;;;10.02;73.79;101084.16;5035758;28;20517;-79
2021/04/24 07:27:11;;;;;;;0.30;0.20;;;;;;;9.90;75.50;101084.31;5035325;28;20510;-80
2021/04/24 07:29:38;;;;;;;0.40;0.30;;;;;;;10.66;73.06;101076.09;5034018;28;20463;-79
2021/04/24 07:32:05;;;;;;;0.30;0.20;;;;;;;10.88;70.33;101087.28;5038970;28;20455;-79
2021/04/24 07:34:31;;;;;;;0.30;0.20;;;;;;;10.81;69.52;101068.78;5044828;28;20478;-79
2021/04/24 07:36:57;;;;;;;0.30;0.20;;;;;;;11.16;68.91;101076.16;5034571;28;20478;-79
2021/04/24 07:39:23;;;;;;;0.30;0.20;;;;;;;11.34;68.08;101078.47;5032802;28;20518;-76
2021/04/24 07:41:49;;;;;;;0.37;0.30;;;;;;;11.71;67.65;101080.41;5032055;28;20957;-75
2021/04/24 07:44:16;;;;;;;0.30;0.20;;;;;;;11.89;67.88;101085.38;5032479;28;20506;-75
2021/04/24 07:46:42;;;;;;;1.10;1.00;;;;;;;12.44;65.10;101073.47;5058231;22;20518;-52
2021/04/24 07:49:08;;;;;;;0.30;0.20;;;;;;;11.80;65.67;101077.59;5050941;28;20512;-51
2021/04/24 07:51:34;;;;;;;0.37;0.20;;;;;;;12.03;65.03;101077.09;5066367;28;20993;-51
2021/04/24 07:54:00;;;;;;;0.30;0.20;;;;;;;12.67;63.56;101076.47;5053307;28;20512;-51
2021/04/24 07:56:26;;;;;;;0.30;0.20;;;;;;;12.48;62.45;101068.97;5051847;28;20943;-51
2021/04/24 07:58:53;;;;;;;0.30;0.20;;;;;;;12.97;62.68;101074.81;5052890;28;20486;-52
2021/04/24 08:01:19;;;;;;;0.40;0.23;;;;;;;12.53;63.91;101073.25;5074107;22;20558;-57
2021/04/24 08:03:46;;;;;;;0.30;0.20;;;;;;;12.59;63.38;101064.22;5066607;28;20457;-57
2021/04/24 08:06:13;;;;;;;0.30;0.20;;;;;;;13.48;60.86;101071.72;5059436;28;20450;-57
2021/04/24 08:08:39;;;;;;;0.77;0.77;;;;;;;13.77;59.00;101076.22;5061744;28;20450;-57
2021/04/24 08:11:05;;;;;;;0.30;0.20;;;;;;;13.21;59.14;101070.66;5066286;28;20520;-57
2021/04/24 08:13:31;;;;;;;0.40;0.30;;;;;;;13.41;58.57;101071.91;5063718;28;20450;-57
2021/04/24 08:15:57;;;;;;;0.40;0.20;;;;;;;13.68;58.63;101079.16;5041687;28;20506;-57
2021/04/24 08:18:23;;;;;;;8.10;1.33;;;;;;;13.57;55.85;101073.25;5061372;28;20486;-57
2021/04/24 08:20:49;;;;;;;0.30;0.20;;;;;;;13.41;54.20;101074.56;5066786;28;20471;-57
2021/04/24 08:23:16;;;;;;;0.30;0.20;;;;;;;13.30;54.11;101073.09;5064330;28;20791;-57
2021/04/24 08:25:42;;;;;;;0.40;0.30;;;;;;;13.80;54.63;101077.91;5058803;28;20446;-57
2021/04/24 08:28:08;;;;;;;0.43;0.40;;;;;;;13.94;54.71;101075.72;5061005;28;20994;-57
2021/04/24 08:30:35;;;;;;;0.30;0.20;;;;;;;13.94;55.05;101068.56;5065968;28;20524;-58
2021/04/24 08:33:02;;;;;;;0.30;0.20;;;;;;;13.88;54.03;101070.56;5063457;28;20449;-58
2021/04/24 08:35:28;;;;;;;0.30;0.20;;;;;;;13.94;51.01;101068.56;5059187;28;20449;-57
2021/04/24 08:37:54;;;;;;;1.23;0.73;;;;;;;13.78;51.01;101066.41;5061215;28;20907;-57
2021/04/24 08:40:21;;;;;;;0.30;0.20;;;;;;;13.84;51.87;101058.19;5062444;28;20487;-57
2021/04/24 08:42:48;;;;;;;0.30;0.20;;;;;;;14.19;51.19;101059.81;5054661;28;20449;-58
2021/04/24 08:45:16;;;;;;;0.30;0.20;;;;;;;14.15;50.59;101069.72;5059460;28;20511;-56
2021/04/24 08:47:51;;;;;;;0.40;0.40;;;;;;;14.11;48.44;101061.84;5060594;28;20451;-56
2021/04/24 08:50:29;;;;;;;0.30;0.20;;;;;;;14.29;48.26;101063.09;5065531;28;20469;-56
2021/04/24 08:52:57;;;;;;;0.30;0.20;;;;;;;14.28;49.81;101059.53;5065430;28;20446;-57
2021/04/24 08:55:34;;;;;;;0.30;0.20;;;;;;;14.18;49.83;101048.25;5060394;28;20529;-57
2021/04/24 08:58:02;;;;;;;0.30;0.20;;;;;;;14.40;49.21;101055.59;5058550;28;20485;-57
2021/04/24 09:00:36;;;;;;;0.40;0.40;;;;;;;14.50;49.47;101059.75;5062148;28;20525;-57
2021/04/24 09:03:08;;;;;;;0.57;0.57;;;;;;;14.80;49.52;101058.75;5065872;28;20518;-56
2021/04/24 09:05:35;;;;;;;0.30;0.20;;;;;;;14.84;47.21;101048.81;5063540;28;20446;-57
2021/04/24 09:08:07;;;;;;;50.40;3.10;;;;;;;14.24;48.42;101050.72;5058893;28;20529;-56
2021/04/24 09:10:39;;;;;;;0.70;0.60;;;;;;;14.43;49.27;101056.38;5065176;28;20466;-57
2021/04/24 09:13:06;;;;;;;0.40;0.30;;;;;;;14.79;49.05;101050.75;5058806;28;20457;-57
2021/04/24 09:15:33;;;;;;;0.30;0.20;;;;;;;14.66;48.67;101044.94;5058343;28;20462;-57
2021/04/24 09:18:11;;;;;;;0.30;0.20;;;;;;;15.04;48.34;101046.31;5064961;28;21080;-58
2021/04/24 09:21:00;;;;;;;0.70;0.67;;;;;;;15.14;48.11;101044.19;5065350;28;20469;-57
2021/04/24 09:23:26;;;;;;;0.30;0.20;;;;;;;14.67;49.34;101041.34;5063529;28;20441;-57
2021/04/24 09:26:02;;;;;;;0.30;0.20;;;;;;;14.78;48.64;101044.53;5058667;28;20476;-57
2021/04/24 09:28:35;;;;;;;0.30;0.20;;;;;;;14.75;49.44;101043.75;5058902;28;20430;-57
2021/04/24 09:31:22;;;;;;;0.40;0.30;;;;;;;14.90;47.70;101043.22;5046363;28;21041;-57
2021/04/24 09:33:52;;;;;;;0.50;0.47;;;;;;;14.84;47.79;101034.56;5067599;28;20441;-57
2021/04/24 09:36:19;;;;;;;1.33;1.30;;;;;;;14.93;47.00;101034.22;5060973;28;20450;-57
2021/04/24 09:38:47;;;;;;;1.00;1.00;;;;;;;14.98;47.58;101027.78;5067046;28;20485;-57
2021/04/24 09:41:18;;;;;;;0.40;0.30;;;;;;;14.74;48.54;101033.97;5060029;28;20470;-58
2021/04/24 09:44:00;;;;;;;0.60;0.60;;;;;;;15.48;47.93;101025.06;5065386;28;20443;-57
2021/04/24 09:46:31;;;;;;;0.30;0.20;;;;;;;15.26;46.32;101019.66;5064982;28;20442;-56
2021/04/24 09:49:07;;;;;;;0.40;0.20;;;;;;;15.85;46.31;101021.06;5060305;28;20442;-56
2021/04/24 09:51:49;;;;;;;0.30;0.20;;;;;;;16.04;46.39;101014.06;5059740;28;20471;-57
2021/04/24 09:54:16;;;;;;;0.30;0.20;;;;;;;14.99;47.01;101021.50;5063375;28;20455;-56
2021/04/24 09:57:02;;;;;;;0.30;0.20;;;;;;;15.40;47.38;101009.31;5069140;28;20504;-57
2021/04/24 09:59:30;;;;;;;0.97;0.97;;;;;;;15.84;46.90;101009.47;5068235;28;20488;-57
2021/04/24 10:02:01;;;;;;;0.40;0.40;;;;;;;15.95;46.22;101006.38;5064172;28;20481;-56
2021/04/24 10:04:30;;;;;;;0.30;0.20;;;;;;;15.33;46.38;101006.88;5061923;28;20527;-57
2021/04/24 10:06:57;;;;;;;0.30;0.20;;;;;;;15.48;46.26;101009.00;5065580;28;20470;-57
2021/04/24 10:09:31;;;;;;;1.17;1.07;;;;;;;15.18;47.56;101005.66;5046619;28;20445;-57
2021/04/24 10:12:00;;;;;;;0.30;0.20;;;;;;;15.66;46.87;101002.13;5063958;28;20450;-57
2021/04/24 10:14:30;;;;;;;0.40;0.33;;;;;;;15.37;46.32;100995.16;5068519;28;20450;-57
2021/04/24 10:17:02;;;;;;;0.40;0.30;;;;;;;15.27;46.59;100993.75;5067291;28;20962;-57
2021/04/24 10:19:29;;;;;;;0.30;0.20;;;;;;;15.61;46.88;100993.38;5061247;28;20494;-57
2021/04/24 10:21:56;;;;;;;0.30;0.30;;;;;;;16.15;46.31;100989.47;5061863;28;21003;-58
2021/04/24 10:24:24;;;;;;;0.30;0.20;;;;;;;15.82;45.31;100979.16;5067951;28;20866;-58
2021/04/24 10:26:52;;;;;;;0.40;0.40;;;;;;;16.13;45.07;100978.81;5050349;28;20449;-57
2021/04/24 10:29:20;;;;;;;0.40;0.37;;;;;;;16.42;45.39;100976.72;5063015;28;20491;-57
2021/04/24 10:31:46;;;;;;;0.40;0.40;;;;;;;15.90;44.93;100978.88;5061351;28;20479;-57
2021/04/24 10:34:14;;;;;;;0.83;0.70;;;;;;;15.64;45.98;100978.06;5057062;28;20828;-57
2021/04/24 10:36:40;;;;;;;0.90;0.77;;;;;;;16.02;45.64;100972.13;5061039;28;20450;-57
2021/04/24 10:39:12;;;;;;;0.40;0.20;;;;;;;16.42;45.93;100968.69;5071517;28;20496;-58
2021/04/24 10:41:45;;;;;;;3.20;0.63;;;;;;;16.00;46.03;100959.66;5060743;28;20505;-57
2021/04/24 10:44:16;;;;;;;0.30;0.20;;;;;;;16.53;46.00;100969.09;5047620;28;20447;-57
2021/04/24 10:46:46;;;;;;;0.40;0.20;;;;;;;16.26;45.52;100965.75;5067828;28;20454;-57
2021/04/24 10:49:30;;;;;;;0.40;0.20;;;;;;;16.50;45.00;100961.19;5065374;28;20446;-57
2021/04/24 10:52:05;;;;;;;0.40;0.20;;;;;;;16.14;45.16;100961.78;5068509;28;20447;-57
2021/04/24 10:54:39;;;;;;;0.50;0.40;;;;;;;16.15;44.46;100962.63;5067675;28;20449;-57
2021/04/24 10:57:40;;;;;;;0.40;0.20;;;;;;;16.20;44.55;100964.22;5063483;28;20469;-57
2021/04/24 11:00:15;;;;;;;0.40;0.20;;;;;;;16.55;44.09;100952.00;5045831;28;20843;-58
2021/04/24 11:02:47;;;;;;;0.40;0.20;;;;;;;16.78;43.86;100956.41;5042816;28;20449;-57
2021/04/24 11:05:17;;;;;;;0.37;0.20;;;;;;;17.22;43.22;100944.63;5064907;28;20450;-57
2021/04/24 11:07:43;;;;;;;0.40;0.30;;;;;;;17.39;42.46;100948.28;5067109;28;20447;-57
2021/04/24 11:10:13;;;;;;;0.40;0.30;;;;;;;17.78;42.22;100950.06;5063882;28;20981;-57
2021/04/24 11:12:48;;;;;;;0.40;0.20;;;;;;;17.56;41.16;100936.78;5060240;28;20456;-58
2021/04/24 11:15:16;;;;;;;0.80;0.73;;;;;;;17.81;40.85;100928.41;5062716;28;20446;-57
2021/04/24 11:17:44;;;;;;;5.30;1.13;;;;;;;17.56;41.16;100931.38;5067205;28;20450;-57
2021/04/24 11:20:11;;;;;;;0.40;0.20;;;;;;;18.17;40.27;100931.13;5066149;28;20847;-58
2021/04/24 11:22:39;;;;;;;0.93;0.93;;;;;;;17.82;39.11;100922.13;5060850;28;20983;-57
2021/04/24 11:25:17;;;;;;;4.30;3.60;;;;;;;18.43;39.90;100913.66;5061769;28;20885;-57
2021/04/24 11:28:05;;;;;;;2.97;0.90;;;;;;;18.47;39.59;100914.38;5048555;28;20495;-58
2021/04/24 11:30:53;;;;;;;0.40;0.20;;;;;;;18.45;38.75;100908.19;5059983;28;20470;-57
2021/04/24 11:33:45;;;;;;;0.50;0.40;;;;;;;17.96;40.78;100914.25;5069373;28;20446;-58